Time;durP1;ratioP1;P1;durP2;ratioP2;P2;SDS_P1;SDS_P2;PMS_P1;PMS_P2;Temp;Humidity;BMP_temperature;BMP_pressure;BME280_temperature;BME280_humidity;BME280_pressure;Samples;Min_cycle;Max_cycle;Signal;HPM_P1;HPM_P2
2021/04/08 09:24:43;;;;;;;3.93;1.90;;;11.90;81.30;;;;;;6096741;23;20599;-71
2021/04/08 09:27:10;;;;;;;2.40;1.80;;;11.80;78.00;;;;;;6097699;23;20485;-72
2021/04/08 09:29:54;;;;;;;5.17;2.93;;;11.70;79.40;;;;;;6097624;23;20180;-72
2021/04/08 09:32:26;;;;;;;4.07;1.90;;;11.00;77.90;;;;;;6097738;23;20190;-72
2021/04/08 09:35:18;;;;;;;3.53;1.53;;;10.80;78.60;;;;;;6097564;23;20251;-71
2021/04/08 09:38:24;;;;;;;3.93;2.30;;;10.70;77.10;;;;;;6070248;23;20565;-72
2021/04/08 09:41:02;;;;;;;4.33;2.17;;;10.30;77.30;;;;;;6097139;23;20214;-71
2021/04/08 09:43:30;;;;;;;3.97;1.70;;;10.20;77.10;;;;;;6097156;23;20656;-71
2021/04/08 09:46:08;;;;;;;3.07;1.93;;;10.10;74.70;;;;;;6097045;23;20184;-71
2021/04/08 09:48:52;;;;;;;8.57;2.10;;;10.00;76.00;;;;;;6097326;23;20476;-71
2021/04/08 09:51:37;;;;;;;3.97;2.13;;;10.00;77.70;;;;;;6097011;23;20282;-71
2021/04/08 09:54:07;;;;;;;2.87;2.03;;;10.00;78.50;;;;;;6096140;23;20618;-71
2021/04/08 09:56:42;;;;;;;3.07;2.00;;;9.90;79.70;;;;;;6096604;23;20183;-71
2021/04/08 09:59:09;;;;;;;5.50;1.97;;;9.80;79.40;;;;;;6097108;23;20183;-71
2021/04/08 10:01:35;;;;;;;3.47;1.63;;;9.90;80.00;;;;;;6096469;23;20576;-72
2021/04/08 10:04:14;;;;;;;5.70;1.97;;;9.70;79.00;;;;;;6096462;23;20183;-71
2021/04/08 10:06:41;;;;;;;3.97;2.00;;;9.90;79.60;;;;;;6096751;23;20230;-72
2021/04/08 10:09:08;;;;;;;7.33;1.70;;;9.80;80.10;;;;;;6097076;23;20183;-71
2021/04/08 10:11:35;;;;;;;7.63;2.27;;;9.80;79.30;;;;;;6096890;23;20222;-71
2021/04/08 10:14:15;;;;;;;2.73;1.90;;;10.10;78.70;;;;;;6096836;23;20187;-72
2021/04/08 10:16:42;;;;;;;3.57;2.00;;;10.20;79.10;;;;;;6097051;23;20180;-72
2021/04/08 10:19:08;;;;;;;2.63;2.00;;;10.10;78.70;;;;;;6096678;23;20189;-72
2021/04/08 10:21:34;;;;;;;3.23;1.90;;;10.00;77.40;;;;;;6097018;23;20222;-71
2021/04/08 10:24:11;;;;;;;2.83;1.50;;;9.80;78.60;;;;;;6096836;23;20194;-71
2021/04/08 10:26:37;;;;;;;2.33;1.70;;;9.60;75.80;;;;;;6093122;23;20179;-71
2021/04/08 10:29:05;;;;;;;3.57;2.13;;;9.50;75.20;;;;;;6096089;23;20186;-73
2021/04/08 10:31:33;;;;;;;2.10;1.80;;;9.60;77.20;;;;;;6097073;23;20701;-72
2021/04/08 10:34:04;;;;;;;4.33;2.07;;;9.60;77.10;;;;;;6096882;23;20179;-72
2021/04/08 10:36:32;;;;;;;3.70;1.90;;;9.50;77.40;;;;;;6096896;23;20179;-71
2021/04/08 10:39:06;;;;;;;5.10;2.27;;;9.60;78.30;;;;;;6096686;23;20499;-70
2021/04/08 10:41:33;;;;;;;5.30;2.00;;;9.60;79.70;;;;;;6096887;23;20214;-72
2021/04/08 10:44:21;;;;;;;2.33;1.50;;;9.80;79.00;;;;;;6095582;23;20184;-71
2021/04/08 10:46:48;;;;;;;3.67;1.90;;;10.10;78.10;;;;;;6096150;23;20179;-72
2021/04/08 10:49:22;;;;;;;3.87;1.77;;;10.40;78.20;;;;;;6096471;23;20227;-72
2021/04/08 10:51:49;;;;;;;4.23;1.90;;;10.30;76.90;;;;;;6096904;23;20257;-72
2021/04/08 10:54:15;;;;;;;5.70;2.10;;;10.60;78.30;;;;;;6096195;23;20591;-72
2021/04/08 10:56:47;;;;;;;3.67;2.00;;;10.90;77.30;;;;;;6096919;23;20190;-72
2021/04/08 10:59:24;;;;;;;4.47;2.50;;;11.20;75.90;;;;;;6097542;23;20187;-72
2021/04/08 11:01:51;;;;;;;2.70;2.07;;;11.20;73.90;;;;;;6096845;23;20215;-72
2021/04/08 11:04:19;;;;;;;4.33;1.90;;;11.30;76.50;;;;;;6097222;23;20179;-73
2021/04/08 11:06:45;;;;;;;3.47;2.23;;;11.40;74.60;;;;;;6097848;23;20183;-72
2021/04/08 11:09:12;;;;;;;2.67;2.07;;;11.50;73.40;;;;;;6098739;23;20179;-73
2021/04/08 11:11:38;;;;;;;3.00;2.20;;;11.20;72.70;;;;;;6098586;23;20203;-72
2021/04/08 11:14:05;;;;;;;6.13;2.30;;;10.80;74.00;;;;;;6098772;23;20179;-73
2021/04/08 11:16:32;;;;;;;3.83;2.30;;;10.90;75.30;;;;;;6099106;23;20475;-72
2021/04/08 11:19:02;;;;;;;7.47;2.60;;;10.90;74.60;;;;;;6098537;23;20656;-72
2021/04/08 11:21:29;;;;;;;5.47;2.47;;;10.70;74.90;;;;;;6098435;23;20219;-72
2021/04/08 11:23:56;;;;;;;4.47;2.20;;;11.00;75.90;;;;;;6098850;23;20192;-73
2021/04/08 11:26:22;;;;;;;4.40;2.17;;;11.20;76.30;;;;;;6098786;23;20183;-72
2021/04/08 11:28:54;;;;;;;2.97;2.13;;;11.30;74.30;;;;;;6098330;23;20183;-72
2021/04/08 11:31:22;;;;;;;4.50;2.00;;;11.00;73.90;;;;;;6098245;23;20674;-72
2021/04/08 11:33:55;;;;;;;7.90;2.20;;;10.80;73.70;;;;;;6098700;23;20190;-72
2021/04/08 11:36:22;;;;;;;4.60;2.50;;;10.80;73.10;;;;;;6098913;23;20183;-72
2021/04/08 11:38:49;;;;;;;5.77;2.57;;;11.00;74.30;;;;;;6098228;23;20184;-72
2021/04/08 11:41:16;;;;;;;4.60;2.30;;;11.00;73.80;;;;;;6098177;23;20215;-72
2021/04/08 11:43:48;;;;;;;4.10;2.37;;;10.80;74.50;;;;;;6098889;23;20186;-72
2021/04/08 11:46:25;;;;;;;2.83;2.00;;;10.70;74.20;;;;;;6098518;23;20214;-73
2021/04/08 11:48:52;;;;;;;2.83;2.00;;;10.90;75.90;;;;;;6098497;23;20495;-73
2021/04/08 11:51:21;;;;;;;3.03;2.47;;;11.20;75.00;;;;;;6098231;23;20214;-73
2021/04/08 11:53:48;;;;;;;4.10;2.50;;;11.10;75.90;;;;;;6098802;23;20191;-73
2021/04/08 11:56:25;;;;;;;5.27;2.83;;;11.20;74.00;;;;;;6098618;23;20186;-73
2021/04/08 11:58:52;;;;;;;3.53;2.40;;;11.20;73.50;;;;;;6098571;23;20211;-73
2021/04/08 12:01:21;;;;;;;7.03;2.60;;;11.40;75.00;;;;;;6094192;23;20215;-80
2021/04/08 12:03:49;;;;;;;4.17;2.47;;;11.40;75.60;;;;;;6096855;23;20183;-77
2021/04/08 12:06:17;;;;;;;3.47;2.50;;;11.40;75.00;;;;;;6096677;23;20189;-77
2021/04/08 12:08:45;;;;;;;9.00;2.30;;;11.20;73.90;;;;;;6096434;23;20180;-80
2021/04/08 12:11:12;;;;;;;3.23;2.60;;;11.10;73.70;;;;;;6096338;23;20219;-79
2021/04/08 12:13:40;;;;;;;6.27;2.50;;;10.90;71.70;;;;;;6095899;23;20179;-80
2021/04/08 12:16:20;;;;;;;3.23;2.10;;;11.00;74.90;;;;;;6096238;23;20258;-82
2021/04/08 12:18:46;;;;;;;2.87;2.00;;;11.00;74.30;;;;;;6096503;23;20183;-78
2021/04/08 12:21:13;;;;;;;6.13;2.93;;;10.80;75.70;;;;;;6096523;23;20208;-83
2021/04/08 12:23:39;;;;;;;8.03;2.40;;;10.70;74.50;;;;;;6096187;23;20196;-81
2021/04/08 12:26:07;;;;;;;4.63;2.30;;;10.70;75.20;;;;;;6096813;23;20190;-81
2021/04/08 12:28:33;;;;;;;4.00;2.10;;;10.60;75.70;;;;;;6096867;23;20190;-82
2021/04/08 12:31:00;;;;;;;7.00;2.50;;;10.50;74.40;;;;;;6095162;23;20496;-75
2021/04/08 12:33:29;;;;;;;5.63;2.10;;;10.50;76.80;;;;;;6096315;23;20179;-75
2021/04/08 12:35:56;;;;;;;3.30;2.40;;;10.60;78.30;;;;;;6096683;23;20191;-74
2021/04/08 12:38:22;;;;;;;4.20;2.30;;;10.70;75.60;;;;;;6095782;23;20180;-74
2021/04/08 12:40:49;;;;;;;5.47;2.10;;;10.60;76.00;;;;;;6097409;23;20643;-74
2021/04/08 12:43:16;;;;;;;8.57;2.50;;;10.30;75.90;;;;;;6094258;23;20622;-73
2021/04/08 12:45:43;;;;;;;3.80;2.13;;;10.30;75.40;;;;;;6097094;23;20183;-73
2021/04/08 12:48:09;;;;;;;3.87;2.20;;;10.10;76.50;;;;;;6098113;23;20190;-73
2021/04/08 12:50:39;;;;;;;6.10;2.40;;;10.00;76.10;;;;;;6097653;23;20262;-76
2021/04/08 12:53:05;;;;;;;3.63;2.30;;;10.10;79.40;;;;;;6097408;23;20194;-75
2021/04/08 12:55:31;;;;;;;4.57;2.40;;;10.40;78.10;;;;;;6097570;23;20187;-76
2021/04/08 12:57:57;;;;;;;2.80;2.10;;;10.40;76.80;;;;;;6097699;23;20266;-74
2021/04/08 13:00:25;;;;;;;4.13;2.43;;;10.60;78.60;;;;;;6097788;23;20208;-73
2021/04/08 13:02:52;;;;;;;3.77;2.27;;;10.60;75.80;;;;;;6097363;23;20215;-74
2021/04/08 13:05:19;;;;;;;5.53;2.80;;;10.60;77.70;;;;;;6097581;23;20179;-74
2021/04/08 13:07:46;;;;;;;7.23;2.50;;;10.50;77.10;;;;;;6096476;23;20188;-71
2021/04/08 13:10:13;;;;;;;5.80;2.83;;;10.60;77.70;;;;;;6095970;23;20209;-71
2021/04/08 13:12:40;;;;;;;2.97;2.37;;;10.70;78.50;;;;;;6096789;23;20197;-71
2021/04/08 13:15:07;;;;;;;5.70;2.00;;;10.70;76.40;;;;;;6096553;23;20179;-71
2021/04/08 13:17:35;;;;;;;6.13;2.70;;;10.60;75.10;;;;;;6096886;23;20188;-70
2021/04/08 13:20:01;;;;;;;3.17;2.40;;;10.40;74.90;;;;;;6096513;23;20722;-70
2021/04/08 13:22:28;;;;;;;5.93;2.47;;;10.60;76.30;;;;;;6096420;23;20217;-69
2021/04/08 13:24:54;;;;;;;4.67;2.57;;;10.60;76.50;;;;;;6096549;23;20246;-71
2021/04/08 13:27:21;;;;;;;6.93;2.67;;;10.70;77.00;;;;;;6096245;23;20182;-70
2021/04/08 13:29:47;;;;;;;5.73;2.57;;;10.80;77.10;;;;;;6096467;23;20574;-71
2021/04/08 13:32:14;;;;;;;4.57;2.53;;;10.90;76.90;;;;;;6095790;23;20670;-72
2021/04/08 13:34:41;;;;;;;7.80;2.50;;;10.80;77.00;;;;;;6095736;23;20179;-71
2021/04/08 13:37:07;;;;;;;5.27;2.83;;;10.60;77.00;;;;;;6097107;23;20239;-73
2021/04/08 13:39:33;;;;;;;4.07;2.60;;;10.60;77.50;;;;;;6096476;23;20199;-71
2021/04/08 13:42:00;;;;;;;4.30;2.80;;;10.60;76.60;;;;;;6095618;23;20234;-72
2021/04/08 13:44:26;;;;;;;6.13;2.50;;;10.70;76.90;;;;;;6096997;23;20258;-71
2021/04/08 13:46:52;;;;;;;4.20;2.30;;;10.80;77.00;;;;;;6095866;23;20267;-72
2021/04/08 13:49:19;;;;;;;8.90;3.10;;;11.00;76.50;;;;;;6097012;23;20187;-71
2021/04/08 13:51:46;;;;;;;5.13;2.80;;;11.10;77.90;;;;;;6097248;23;20204;-70
2021/04/08 13:54:12;;;;;;;6.03;2.80;;;11.20;76.90;;;;;;6096226;23;20242;-70
2021/04/08 13:56:39;;;;;;;4.67;2.57;;;11.10;76.70;;;;;;6097039;23;20183;-70
2021/04/08 13:59:05;;;;;;;5.43;2.40;;;11.20;75.40;;;;;;6097509;23;20186;-70
2021/04/08 14:01:31;;;;;;;4.70;2.40;;;11.30;75.90;;;;;;6096703;23;20215;-71
2021/04/08 14:03:58;;;;;;;3.73;2.17;;;11.20;77.30;;;;;;6096378;23;20180;-71
2021/04/08 14:06:24;;;;;;;5.00;2.73;;;11.30;77.20;;;;;;6096367;23;20179;-71
2021/04/08 14:08:51;;;;;;;6.10;2.60;;;11.20;78.60;;;;;;6096209;23;20188;-70
2021/04/08 14:11:18;;;;;;;5.47;2.70;;;11.30;76.70;;;;;;6095340;23;20203;-71
2021/04/08 14:13:44;;;;;;;6.57;2.90;;;11.30;77.50;;;;;;6096200;23;20238;-71
2021/04/08 14:16:10;;;;;;;4.27;2.30;;;11.30;77.90;;;;;;6095861;23;20184;-71
2021/04/08 14:18:36;;;;;;;7.70;2.60;;;11.30;77.40;;;;;;6095637;23;20484;-70
2021/04/08 14:21:03;;;;;;;3.63;2.20;;;11.40;78.40;;;;;;6095354;23;20215;-70
2021/04/08 14:23:30;;;;;;;6.63;2.67;;;11.20;78.20;;;;;;6095642;23;20717;-71
2021/04/08 14:25:57;;;;;;;8.57;4.13;;;11.30;79.30;;;;;;6096366;23;20179;-69
2021/04/08 14:28:25;;;;;;;4.80;2.37;;;11.30;78.40;;;;;;6096004;23;20183;-71
2021/04/08 14:30:53;;;;;;;3.97;2.27;;;11.20;78.50;;;;;;6095810;23;20240;-69
2021/04/08 14:33:19;;;;;;;3.60;2.27;;;11.10;76.80;;;;;;6092036;23;20183;-75
2021/04/08 14:35:46;;;;;;;4.37;2.20;;;11.10;78.10;;;;;;6094157;23;20187;-74
2021/04/08 14:38:14;;;;;;;3.60;2.23;;;11.10;77.90;;;;;;6094195;23;20180;-73
2021/04/08 14:40:42;;;;;;;5.17;2.00;;;11.20;78.60;;;;;;6094410;23;20214;-71
2021/04/08 14:43:10;;;;;;;3.97;2.23;;;11.20;78.00;;;;;;6097608;23;20183;-71
2021/04/08 14:45:37;;;;;;;3.63;2.13;;;11.10;78.40;;;;;;6097316;23;20191;-71
2021/04/08 14:48:04;;;;;;;3.53;2.37;;;11.10;78.90;;;;;;6097499;23;20187;-71
2021/04/08 14:50:30;;;;;;;4.80;2.13;;;11.20;80.10;;;;;;6098213;23;20207;-74
2021/04/08 14:52:56;;;;;;;4.43;2.57;;;11.30;80.20;;;;;;6099735;23;20187;-72
2021/04/08 14:55:23;;;;;;;4.23;2.53;;;11.30;80.00;;;;;;6099140;23;20179;-71
2021/04/08 14:57:49;;;;;;;6.80;2.07;;;11.10;78.80;;;;;;6099732;23;20190;-72
2021/04/08 15:00:18;;;;;;;5.17;2.53;;;11.00;79.30;;;;;;6099565;23;20207;-72
2021/04/08 15:02:46;;;;;;;6.70;2.50;;;10.80;79.00;;;;;;6099569;23;20211;-72
2021/04/08 15:05:13;;;;;;;4.97;2.30;;;10.80;79.90;;;;;;6099072;23;20214;-71
2021/04/08 15:07:40;;;;;;;5.73;2.57;;;10.80;80.80;;;;;;6099564;23;20202;-71
2021/04/08 15:10:08;;;;;;;4.60;2.33;;;10.90;81.50;;;;;;6099212;23;20203;-71
2021/04/08 15:12:35;;;;;;;7.33;2.53;;;10.70;80.00;;;;;;6099553;23;20187;-72
2021/04/08 15:15:01;;;;;;;3.37;2.20;;;10.60;79.90;;;;;;6099523;23;20179;-73
2021/04/08 15:17:28;;;;;;;4.57;1.90;;;10.70;80.20;;;;;;6098745;23;20288;-72
2021/04/08 15:19:56;;;;;;;5.90;2.50;;;10.70;80.20;;;;;;6099166;23;20203;-75
2021/04/08 15:22:23;;;;;;;4.90;2.33;;;10.70;80.80;;;;;;6098966;23;20207;-72
2021/04/08 15:24:50;;;;;;;4.67;2.00;;;10.60;80.50;;;;;;6098200;23;20192;-73
2021/04/08 15:27:16;;;;;;;5.47;2.40;;;10.50;81.00;;;;;;6099784;23;20191;-73
2021/04/08 15:29:42;;;;;;;4.03;2.47;;;10.60;82.30;;;;;;6099280;23;20179;-74
2021/04/08 15:32:09;;;;;;;4.20;2.20;;;10.60;81.30;;;;;;6098728;23;20227;-71
2021/04/08 15:34:36;;;;;;;6.53;2.37;;;10.50;81.30;;;;;;6095182;23;20187;-74
2021/04/08 15:37:02;;;;;;;4.43;2.50;;;10.40;81.40;;;;;;6097252;23;20202;-73
2021/04/08 15:39:28;;;;;;;8.00;2.87;;;10.30;81.10;;;;;;6097315;23;20654;-73
2021/04/08 15:41:54;;;;;;;3.00;2.10;;;10.40;81.90;;;;;;6096540;23;20215;-71
2021/04/08 15:44:21;;;;;;;4.23;2.53;;;10.50;82.00;;;;;;6097020;23;20183;-74
2021/04/08 15:46:47;;;;;;;5.17;2.70;;;10.50;81.50;;;;;;6097739;23;20187;-76
2021/04/08 15:49:15;;;;;;;5.83;2.77;;;10.50;80.40;;;;;;6097334;23;20681;-72
2021/04/08 15:51:43;;;;;;;4.57;2.67;;;10.40;80.50;;;;;;6097095;23;20579;-79
2021/04/08 15:54:09;;;;;;;6.27;2.40;;;10.30;80.10;;;;;;6095808;23;20183;-70
2021/04/08 15:56:35;;;;;;;5.43;2.90;;;10.40;80.70;;;;;;6097175;23;20198;-71
2021/04/08 15:59:02;;;;;;;4.60;2.50;;;10.40;82.20;;;;;;6097469;23;20221;-75
2021/04/08 16:01:29;;;;;;;6.87;2.77;;;10.30;80.20;;;;;;6097410;23;20208;-74
2021/04/08 16:03:55;;;;;;;4.30;2.53;;;10.20;81.30;;;;;;6097385;23;20179;-73
2021/04/08 16:06:22;;;;;;;4.00;2.40;;;10.20;81.40;;;;;;6097443;23;20879;-73
2021/04/08 16:08:50;;;;;;;3.17;2.33;;;10.30;80.60;;;;;;6097174;23;20184;-73
2021/04/08 16:11:17;;;;;;;3.63;2.50;;;10.30;81.20;;;;;;6097414;23;20222;-72
2021/04/08 16:13:43;;;;;;;4.97;2.50;;;10.20;80.70;;;;;;6097478;23;20187;-72
2021/04/08 16:16:10;;;;;;;4.40;2.27;;;10.10;81.50;;;;;;6096984;23;20179;-70
2021/04/08 16:18:36;;;;;;;4.17;2.43;;;10.10;82.00;;;;;;6097537;23;20183;-70
2021/04/08 16:21:03;;;;;;;5.17;2.20;;;10.20;81.20;;;;;;6097345;23;20204;-72
2021/04/08 16:23:30;;;;;;;4.80;2.50;;;10.20;81.20;;;;;;6096754;23;20631;-71
2021/04/08 16:25:57;;;;;;;5.83;2.53;;;10.20;81.50;;;;;;6096416;23;20518;-74
2021/04/08 16:28:24;;;;;;;7.47;2.67;;;10.30;82.20;;;;;;6097386;23;20191;-74
2021/04/08 16:30:51;;;;;;;5.53;2.50;;;10.30;82.70;;;;;;6097036;23;20286;-74
2021/04/08 16:33:17;;;;;;;4.03;2.47;;;10.30;81.70;;;;;;6097068;23;20239;-73
2021/04/08 16:35:43;;;;;;;3.23;2.23;;;10.10;81.00;;;;;;6097421;23;20184;-77
2021/04/08 16:38:10;;;;;;;5.03;2.20;;;10.10;81.70;;;;;;6096870;23;20186;-76
2021/04/08 16:40:36;;;;;;;4.73;2.90;;;10.10;82.50;;;;;;6096642;23;20206;-76
2021/04/08 16:43:04;;;;;;;2.77;2.03;;;10.10;81.40;;;;;;6097126;23;20219;-73
2021/04/08 16:45:30;;;;;;;3.30;2.10;;;10.10;82.10;;;;;;6096729;23;20654;-76
2021/04/08 16:47:56;;;;;;;5.27;2.60;;;10.20;82.50;;;;;;6097295;23;20183;-75
2021/04/08 16:50:23;;;;;;;5.00;2.43;;;10.10;82.00;;;;;;6097107;23;20282;-74
2021/04/08 16:52:49;;;;;;;5.90;2.43;;;10.10;81.60;;;;;;6096190;23;20187;-72
2021/04/08 16:55:16;;;;;;;6.47;2.87;;;10.00;81.70;;;;;;6097418;23;20273;-76
2021/04/08 16:57:42;;;;;;;5.40;2.67;;;10.00;81.60;;;;;;6097268;23;20226;-71
2021/04/08 17:00:12;;;;;;;7.83;2.63;;;10.00;82.20;;;;;;6097026;23;20258;-73
2021/04/08 17:02:41;;;;;;;4.70;2.97;;;9.90;83.50;;;;;;6096226;23;20211;-71
2021/04/08 17:05:08;;;;;;;5.70;2.40;;;9.80;83.20;;;;;;6096253;23;20179;-71
2021/04/08 17:07:35;;;;;;;6.10;2.20;;;9.80;83.30;;;;;;6096631;23;20199;-70
2021/04/08 17:10:01;;;;;;;3.37;2.30;;;9.80;84.40;;;;;;6096030;23;20662;-71
2021/04/08 17:12:27;;;;;;;3.20;2.40;;;9.80;83.70;;;;;;6096358;23;20234;-71
2021/04/08 17:14:54;;;;;;;4.60;2.57;;;9.70;83.70;;;;;;6096406;23;20180;-70
2021/04/08 17:17:22;;;;;;;6.43;2.87;;;9.70;85.00;;;;;;6096449;23;20185;-70
2021/04/08 17:19:48;;;;;;;3.10;2.30;;;9.80;84.20;;;;;;6095385;23;20192;-70
2021/04/08 17:22:15;;;;;;;5.10;2.50;;;9.90;84.70;;;;;;6095907;23;20718;-72
2021/04/08 17:24:41;;;;;;;5.87;2.37;;;10.00;83.00;;;;;;6095859;23;20187;-75
2021/04/08 17:27:07;;;;;;;4.83;2.80;;;9.90;84.30;;;;;;6095963;23;20665;-74
2021/04/08 17:29:34;;;;;;;5.63;2.20;;;9.70;84.00;;;;;;6096945;23;20183;-75
2021/04/08 17:32:01;;;;;;;7.73;2.60;;;9.60;83.90;;;;;;6097373;23;20186;-75
2021/04/08 17:34:28;;;;;;;4.17;2.40;;;9.70;84.50;;;;;;6096475;23;20631;-73
2021/04/08 17:36:55;;;;;;;5.83;2.60;;;9.70;85.10;;;;;;6096790;23;20548;-73
2021/04/08 17:39:21;;;;;;;6.07;2.97;;;9.70;85.70;;;;;;6096993;23;20183;-74
2021/04/08 17:41:49;;;;;;;5.30;2.87;;;9.70;84.30;;;;;;6097001;23;20211;-73
2021/04/08 17:44:15;;;;;;;8.83;3.23;;;9.60;84.00;;;;;;6096444;23;20207;-73
2021/04/08 17:46:42;;;;;;;5.03;2.60;;;9.50;83.30;;;;;;6095528;23;20186;-74
2021/04/08 17:49:08;;;;;;;7.07;2.43;;;9.50;84.30;;;;;;6096359;23;20179;-74
2021/04/08 17:51:35;;;;;;;7.17;2.93;;;9.50;84.00;;;;;;6095905;23;20207;-73
2021/04/08 17:54:02;;;;;;;7.00;2.83;;;9.50;84.60;;;;;;6095890;23;20200;-73
2021/04/08 17:56:28;;;;;;;4.33;2.57;;;9.50;84.90;;;;;;6096198;23;20262;-74
2021/04/08 17:58:55;;;;;;;5.67;2.70;;;9.50;84.00;;;;;;6097104;23;20183;-74
2021/04/08 18:01:21;;;;;;;6.33;2.60;;;9.50;84.80;;;;;;6096828;23;20210;-74
2021/04/08 18:03:47;;;;;;;6.10;2.77;;;9.50;84.70;;;;;;6095856;23;20184;-74
2021/04/08 18:06:14;;;;;;;3.37;2.40;;;9.50;85.50;;;;;;6096242;23;20191;-74
2021/04/08 18:08:41;;;;;;;3.97;2.73;;;9.40;85.00;;;;;;6096265;23;20184;-74
2021/04/08 18:11:08;;;;;;;5.17;2.50;;;9.40;86.40;;;;;;6095770;23;20524;-74
2021/04/08 18:13:35;;;;;;;4.83;2.77;;;9.40;86.20;;;;;;6095521;23;20574;-74
2021/04/08 18:16:01;;;;;;;5.37;2.30;;;9.30;86.00;;;;;;6095631;23;20258;-74
2021/04/08 18:18:28;;;;;;;4.40;2.47;;;9.20;85.80;;;;;;6096040;23;20191;-74
2021/04/08 18:20:54;;;;;;;5.07;2.37;;;9.10;85.90;;;;;;6096179;23;20277;-74
2021/04/08 18:23:21;;;;;;;5.77;2.80;;;9.00;86.50;;;;;;6095614;23;20217;-74
2021/04/08 18:25:48;;;;;;;12.83;2.63;;;9.10;87.20;;;;;;6096396;23;20227;-74
2021/04/08 18:28:14;;;;;;;4.17;2.63;;;9.00;87.00;;;;;;6089258;23;20190;-73
2021/04/08 18:30:49;;;;;;;8.60;3.07;;;9.00;86.90;;;;;;6094148;23;20207;-74
2021/04/08 18:33:16;;;;;;;5.30;2.73;;;9.00;87.20;;;;;;6097276;23;20183;-73
2021/04/08 18:35:43;;;;;;;7.40;2.90;;;8.90;87.80;;;;;;6096544;23;20183;-74
2021/04/08 18:38:09;;;;;;;6.10;3.10;;;8.90;89.20;;;;;;6096999;23;20231;-73
2021/04/08 18:40:35;;;;;;;8.73;2.70;;;8.90;90.80;;;;;;6092698;23;20207;-73
2021/04/08 18:43:03;;;;;;;8.10;3.23;;;8.80;90.30;;;;;;6095573;23;20574;-74
2021/04/08 18:45:29;;;;;;;4.07;2.60;;;8.80;90.40;;;;;;6095567;23;20274;-73
2021/04/08 18:47:55;;;;;;;7.40;3.00;;;8.80;90.90;;;;;;6096283;23;20510;-74
2021/04/08 18:50:22;;;;;;;6.60;2.87;;;8.60;91.60;;;;;;6095561;23;20211;-73
2021/04/08 18:52:51;;;;;;;9.77;3.10;;;8.60;91.90;;;;;;6095822;23;20179;-74
2021/04/08 18:55:18;;;;;;;5.80;2.87;;;8.50;92.10;;;;;;6095789;23;20187;-73
2021/04/08 18:57:45;;;;;;;7.43;3.57;;;8.40;92.50;;;;;;6095763;23;20186;-74
2021/04/08 19:00:15;;;;;;;4.87;3.00;;;8.40;92.70;;;;;;6095829;23;20251;-74
2021/04/08 19:02:41;;;;;;;11.57;2.73;;;8.30;93.30;;;;;;6095803;23;20666;-74
2021/04/08 19:05:09;;;;;;;8.97;2.60;;;8.10;93.90;;;;;;6095483;23;20631;-73
2021/04/08 19:07:35;;;;;;;6.13;2.80;;;8.00;94.40;;;;;;6095685;23;20230;-73
2021/04/08 19:10:02;;;;;;;7.70;2.73;;;7.90;94.90;;;;;;6095477;23;20251;-73
2021/04/08 19:12:28;;;;;;;6.40;2.77;;;7.90;95.00;;;;;;6095670;23;20705;-74
2021/04/08 19:14:54;;;;;;;8.37;2.93;;;7.80;95.40;;;;;;6096468;23;20349;-73
2021/04/08 19:17:22;;;;;;;5.57;3.17;;;7.80;95.60;;;;;;6096225;23;20184;-73
2021/04/08 19:19:48;;;;;;;6.37;3.13;;;7.70;95.70;;;;;;6095734;23;20195;-73
2021/04/08 19:22:14;;;;;;;8.30;3.43;;;7.70;95.80;;;;;;6095639;23;20207;-74
2021/04/08 19:24:40;;;;;;;9.20;3.70;;;7.60;95.80;;;;;;6094727;23;20376;-73
2021/04/08 19:27:07;;;;;;;6.27;3.13;;;7.60;96.10;;;;;;6095921;23;20187;-73
2021/04/08 19:29:34;;;;;;;7.37;3.60;;;7.50;96.50;;;;;;6097046;23;20894;-73
2021/04/08 19:32:00;;;;;;;5.33;3.30;;;7.40;96.80;;;;;;6097177;23;20484;-73
2021/04/08 19:34:27;;;;;;;9.73;3.60;;;7.30;97.00;;;;;;6097334;23;20659;-72
2021/04/08 19:36:53;;;;;;;7.43;2.77;;;7.30;97.40;;;;;;6097643;23;20180;-71
2021/04/08 19:39:20;;;;;;;8.23;3.00;;;7.40;97.70;;;;;;6096926;23;20183;-71
2021/04/08 19:41:46;;;;;;;6.80;3.30;;;7.30;97.90;;;;;;6093486;23;20291;-73
2021/04/08 19:44:13;;;;;;;6.17;3.33;;;7.20;98.10;;;;;;6097192;23;20180;-73
2021/04/08 19:46:39;;;;;;;9.50;3.33;;;7.20;98.40;;;;;;6097371;23;20183;-73
2021/04/08 19:49:05;;;;;;;4.73;2.93;;;7.20;98.80;;;;;;6097431;23;20198;-74
2021/04/08 19:51:34;;;;;;;5.17;2.90;;;7.10;98.90;;;;;;6097264;23;20207;-73
2021/04/08 19:54:00;;;;;;;6.37;3.17;;;7.10;99.40;;;;;;6096984;23;20186;-72
2021/04/08 19:56:27;;;;;;;5.10;2.90;;;7.10;99.70;;;;;;6096556;23;20647;-73
2021/04/08 19:58:53;;;;;;;6.10;2.90;;;7.00;99.90;;;;;;6097372;23;20496;-72
2021/04/08 20:01:20;;;;;;;6.83;3.10;;;7.00;99.90;;;;;;6097059;23;20279;-72
2021/04/08 20:03:46;;;;;;;6.27;3.03;;;7.00;99.90;;;;;;6097217;23;20240;-72
2021/04/08 20:06:12;;;;;;;5.67;3.30;;;7.00;99.90;;;;;;6097213;23;20428;-71
2021/04/08 20:08:40;;;;;;;5.63;3.27;;;7.00;99.90;;;;;;6096856;23;20646;-72
2021/04/08 20:11:06;;;;;;;6.97;3.30;;;6.90;99.90;;;;;;6094273;23;20231;-72
2021/04/08 20:13:32;;;;;;;5.87;2.90;;;6.90;99.90;;;;;;6096341;23;20183;-73
2021/04/08 20:15:59;;;;;;;6.93;3.20;;;6.90;99.90;;;;;;6097019;23;20574;-73
2021/04/08 20:18:25;;;;;;;6.13;3.43;;;6.90;99.90;;;;;;6097341;23;20636;-73
2021/04/08 20:20:51;;;;;;;6.13;3.27;;;6.80;99.90;;;;;;6096926;23;20255;-73
2021/04/08 20:23:17;;;;;;;5.43;2.87;;;6.80;99.90;;;;;;6096886;23;20207;-74
2021/04/08 20:25:44;;;;;;;6.60;3.43;;;6.80;99.90;;;;;;6096289;23;20194;-72
2021/04/08 20:28:11;;;;;;;5.90;3.27;;;6.70;99.90;;;;;;6096579;23;20219;-73
2021/04/08 20:30:37;;;;;;;7.33;3.20;;;6.60;99.90;;;;;;6097135;23;20207;-74
2021/04/08 20:33:04;;;;;;;7.43;3.63;;;6.60;99.90;;;;;;6096505;23;20643;-74
2021/04/08 20:35:30;;;;;;;5.60;3.53;;;6.60;99.90;;;;;;6096863;23;20179;-73
2021/04/08 20:37:57;;;;;;;5.33;3.30;;;6.60;99.90;;;;;;6096347;23;20190;-73
